Date,TemperatureHighF,TemperatureAvgF,TemperatureLowF,DewpointHighF,DewpointAvgF,DewpointLowF,HumidityHigh,HumidityAvg,HumidityLow,PressureMaxIn,PressureMinIn,WindSpeedMaxMPH,WindSpeedAvgMPH,GustSpeedMaxMPH,PrecipitationSumIn
2013-3-1,37.8,33.3,31.1,27.5,25.0,22.5,78,71,63,30.15,30.06,14,6,15,0.00
2013-3-2,50.7,33.4,23.9,23.9,19.5,15.3,78,59,31,30.18,30.04,11,4,12,0.00
2013-3-3,39.7,31.5,25.0,25.3,20.3,16.3,73,63,52,30.14,30.01,14,7,15,0.00
2013-3-4,48.4,36.1,26.2,25.9,19.5,15.6,75,53,29,30.19,30.10,11,4,11,0.00
2013-3-5,52.3,37.5,24.1,25.2,21.5,15.4,75,54,31,30.10,29.81,12,4,12,0.00
2013-3-6,57.4,38.8,24.3,30.4,25.5,18.4,80,61,31,29.81,29.59,9,3,11,0.00
2013-3-7,49.6,41.2,34.2,39.9,34.8,27.3,88,78,68,29.59,29.54,6,3,8,0.00
2013-3-8,45.1,41.9,37.8,42.3,39.3,35.7,94,90,85,29.60,29.57,10,5,11,0.01
2013-3-9,39.7,38.1,35.8,37.9,36.2,34.0,94,93,92,29.61,29.52,7,3,9,0.07
2013-3-10,58.3,45.1,37.9,45.2,38.2,34.1,94,79,43,29.53,29.38,15,5,20,0.00
2013-3-11,43.2,27.9,23.5,38.0,22.1,17.4,87,78,73,29.61,29.38,17,10,17,0.01
2013-3-12,27.0,24.4,22.6,20.2,18.8,17.0,84,79,73,29.60,29.44,13,9,15,0.00
2013-3-13,28.2,23.0,20.3,18.7,15.5,12.4,84,73,57,29.65,29.44,14,9,16,0.00
2013-3-14,31.5,23.5,14.9,15.1,10.6,7.5,76,59,39,29.75,29.65,19,8,20,0.00
2013-3-15,32.4,23.5,17.1,15.9,12.1,8.6,75,62,41,29.97,29.73,17,8,19,0.00
2013-3-16,42.4,28.0,14.7,16.0,9.1,-0.9,73,48,17,30.04,29.92,10,4,10,0.00
2013-3-17,43.3,31.6,20.7,15.4,11.5,8.0,61,44,27,29.93,29.60,21,10,25,0.00
2013-3-18,42.1,31.9,25.9,28.0,21.6,15.2,87,67,44,29.61,29.18,13,6,17,0.00
2013-3-19,41.9,34.9,29.7,30.0,27.6,26.3,87,75,61,29.53,29.18,17,8,23,0.35
2013-3-20,57.9,41.6,32.4,32.6,29.1,26.3,82,63,35,29.72,29.53,14,7,16,0.04
2013-3-21,37.2,33.2,27.3,31.7,23.6,17.2,84,68,51,29.99,29.72,20,10,26,0.00
2013-3-22,32.5,27.5,25.7,20.0,17.7,15.4,73,66,55,30.03,29.98,16,10,18,0.01
2013-3-23,33.1,25.0,15.3,17.0,6.3,-3.5,67,46,27,30.10,30.01,21,12,24,0.00
2013-3-24,35.8,22.7,12.9,7.1,-1.9,-10.3,53,36,15,30.10,29.98,24,13,26,0.00
2013-3-25,32.9,24.8,19.9,8.3,5.3,1.2,55,43,28,29.99,29.83,24,14,26,0.00
2013-3-26,31.8,26.2,20.3,8.5,1.8,-8.5,59,37,17,29.83,29.76,30,14,30,0.00
2013-3-27,29.1,25.5,23.0,21.2,14.6,3.5,81,64,39,29.83,29.78,17,8,17,0.00
2013-3-28,40.3,30.9,25.0,24.0,21.4,19.0,82,68,47,29.81,29.69,17,6,17,0.01
2013-3-29,43.9,34.8,28.6,29.3,22.6,16.1,85,63,38,29.69,29.58,23,7,23,0.06
2013-3-30,47.5,34.7,27.5,25.4,21.3,18.0,71,59,35,29.67,29.59,17,7,17,0.00
2013-3-31,34.0,30.5,28.2,22.9,20.9,18.3,79,67,55,29.73,29.64,18,11,18,0.00